Etusivu
METAR-TAF:

METAR-TAF

Lentoasemat :

King Cove, Alaska, Yhdysvallat

Leveyspiiri: 55-06-59N, Pituuspiiri: 162-15-58W, korkeus merenpinnasta: 47 m

Tämänhetkinen sää

Tämä raportti tehtiin 13 minuuttia sitten, kello 06.07 UTC
Tuuli 9 kn kaakosta
Lämpötila 6°C
Kosteus 100%
Ilmanpaine 1003 hPa
Näkyvyys: 4.8 km
Pilvistä 400 ft:n korkeudessa
heikkoa sadetta, utua

METAR: PAVC 070607Z AUTO 13009KT 3SM -RA BR OVC004 06/06 A2961 RMK AO2 CIG 003V007 PNO $

Aika: 22:20 (06:20 UTC)


TAF: puuttuu

Säähavainnot ja -ennusteet yli 4000 lentoasemalta (METAR- ja TAF-raportit).

Käytössä olevat sääasemat on merkitty karttaan keltaisilla ja punaisilla pisteillä.

Aseta hiiri pisteen päälle nähdäksesi sääaseman nimen.

Klikkaa sitten nähdäksesi säähavainnot ja -ennusteet.

Kartan vaihtaminen: klikkaa mustalla rastilla varustettuja vihreitä pisteitä, niin voit zoomata sisään; viivalla varustettua vihreää pistettä, niin voit zoomata ulos tai vihreitä nuolia, niin pääset viereisille kartoille.


METAR-TAF: